Accueil
METAR-TAF:

METAR-TAF

Aéroports :

Aéroport de León

León, Espagne

latitude: 42-35N, longitude: 005-39W, altitude: 926 m

Observation

Le bulletin a été fait il y a 30 minutes, à 18:00 UTC
Vent 12 kt de est
Température 6°C
Humidité 87%
Pression 1007 hPa
Visibilité 10 km ou plus
Nuages fragmentés à une hauteur de 1200 ft
pluie faible

METAR: LELN 311800Z 08012KT 9999 -RA BKN012 06/04 Q1007

Heure: 20:30 (18:30 UTC)

Prévision

Le bulletin a été fait il y a 1 heure et 30 minutes, à 17:00 UTC
Prévision valable du 31 à 18 UTC au 01 à 03 UTC
Vent 10 kt de est/nord-est
Visibilité 10 km ou plus
Nuages épars à une hauteur de 2000 ft
Nuages fragmentés à une hauteur de 3000 ft
Probabilité 40% :
Temporairement
du 31 à 18 UTC au 01 à 03 UTC
Visibilité: 4000 m
Nuages fragmentés à une hauteur de 800 ft
pluie

TAF: LELN 311700Z 3118/0103 07010KT 9999 SCT020 BKN030 PROB40 TEMPO 3118/0103 4000 RA BKN008

Observations et prévisions météorologiques de plus de 4000 aéroports (messages METAR et TAF).

Les stations disponibles sont représentées par des disques jaunes et rouges sur la carte.

Passer la souris dessus pour voir le nom de la station.

Cliquer dessus pour voir les observations et prévisions météorologiques.

Pour changer de carte: cliquez sur les boutons verts avec une croix noire pour zoomer, sur le bouton vert avec un tiret pour effectuer un zoom arrière, ou sur les flèches vertes pour les cartes adjacentes.


METAR-TAF: